Terminal Aerodrome Forecast
Issued by NWS

Home | Current Version | Previous Version | Text Only | Print | Product List | Glossary On
Versions: 1 2 3 4 5 6 7 8 9 10 11 12 13 14 15 16 17 18 19 20 21 22 23 24
952
FTUS43 KLSX 271238 AAA
TAFSUS
TAF AMD
KSUS 271238Z 2713/2812 VRB04KT 5SM -SHRA OVC040
      TEMPO 2713/2715 2SM -RA BR
     FM271500 11006KT 5SM -SHRA OVC030
     FM271800 16005KT P6SM OVC030
     FM272200 33004KT 5SM -SHRA VCTS OVC020CB
     FM280000 33007KT P6SM OVC015=

USA.gov is the U.S. government's official web portal to all federal, state and local government web resources and services.